createdAt,value
2022-11-02T00:00:44.961Z,100.00
2022-11-02T00:03:28.930Z,100.00
2022-11-02T00:05:55.723Z,100.00
2022-11-02T00:08:23.116Z,100.00
2022-11-02T00:10:50.237Z,100.00
2022-11-02T00:13:17.447Z,100.00
2022-11-02T00:15:44.334Z,100.00
2022-11-02T00:18:12.699Z,100.00
2022-11-02T00:20:40.415Z,100.00
2022-11-02T00:23:10.959Z,100.00
2022-11-02T00:25:39.433Z,100.00
2022-11-02T00:28:06.792Z,100.00
2022-11-02T00:30:33.724Z,100.00
2022-11-02T00:33:01.530Z,100.00
2022-11-02T00:35:28.775Z,100.00
2022-11-02T00:37:55.866Z,100.00
2022-11-02T00:40:22.756Z,100.00
2022-11-02T00:42:49.933Z,100.00
2022-11-02T00:45:16.971Z,100.00
2022-11-02T00:47:44.143Z,100.00
2022-11-02T00:50:11.374Z,100.00
2022-11-02T00:52:40.026Z,100.00
2022-11-02T00:55:09.078Z,100.00
2022-11-02T00:57:36.270Z,100.00
2022-11-02T01:00:04.236Z,100.00
2022-11-02T01:02:32.743Z,100.00
2022-11-02T01:04:59.831Z,100.00
2022-11-02T01:07:29.712Z,100.00
2022-11-02T01:09:56.579Z,100.00
2022-11-02T01:12:23.689Z,100.00
2022-11-02T01:14:50.767Z,100.00
2022-11-02T01:17:18.523Z,100.00
2022-11-02T01:19:45.514Z,100.00
2022-11-02T01:22:13.184Z,100.00
2022-11-02T01:24:40.069Z,100.00
2022-11-02T01:27:07.267Z,100.00
2022-11-02T01:29:34.155Z,100.00
2022-11-02T01:32:01.383Z,100.00
2022-11-02T01:34:28.358Z,100.00
2022-11-02T01:36:55.549Z,100.00
2022-11-02T01:39:22.425Z,100.00
2022-11-02T01:41:53.472Z,100.00
2022-11-02T01:44:30.626Z,100.00
2022-11-02T01:47:08.935Z,100.00
2022-11-02T01:49:38.388Z,100.00
2022-11-02T01:52:20.402Z,100.00
2022-11-02T01:54:59.352Z,100.00
2022-11-02T01:57:28.519Z,100.00
2022-11-02T02:00:06.089Z,100.00
2022-11-02T02:02:35.704Z,100.00
2022-11-02T02:05:04.246Z,100.00
2022-11-02T02:07:32.168Z,100.00
2022-11-02T02:10:00.591Z,100.00
2022-11-02T02:12:28.360Z,100.00
2022-11-02T02:14:55.354Z,100.00
2022-11-02T02:17:40.799Z,100.00
2022-11-02T02:20:07.782Z,100.00
2022-11-02T02:22:53.481Z,100.00
2022-11-02T02:25:32.473Z,100.00
2022-11-02T02:28:06.219Z,100.00
2022-11-02T02:30:38.179Z,100.00
2022-11-02T02:33:10.464Z,100.00
2022-11-02T02:35:54.346Z,100.00
2022-11-02T02:38:27.678Z,100.00
2022-11-02T02:41:20.824Z,100.00
2022-11-02T02:43:50.763Z,100.00
2022-11-02T02:46:24.445Z,100.00
2022-11-02T02:48:54.614Z,100.00
2022-11-02T02:51:31.059Z,100.00
2022-11-02T02:54:11.090Z,100.00
2022-11-02T02:56:39.921Z,100.00
2022-11-02T02:59:20.432Z,100.00
2022-11-02T03:01:48.212Z,100.00
2022-11-02T03:04:15.947Z,100.00
2022-11-02T03:06:45.586Z,100.00
2022-11-02T03:09:19.367Z,100.00
2022-11-02T03:12:05.099Z,100.00
2022-11-02T03:14:54.902Z,100.00
2022-11-02T03:17:47.818Z,100.00
2022-11-02T03:20:15.004Z,100.00
2022-11-02T03:22:52.267Z,100.00
2022-11-02T03:25:30.286Z,100.00
2022-11-02T03:27:57.108Z,100.00
2022-11-02T03:30:26.697Z,100.00
2022-11-02T03:33:12.366Z,100.00
2022-11-02T03:35:55.831Z,100.00
2022-11-02T03:38:25.402Z,100.00
2022-11-02T03:40:55.360Z,100.00
2022-11-02T03:43:23.111Z,100.00
2022-11-02T03:45:59.175Z,100.00
2022-11-02T03:48:29.129Z,100.00
2022-11-02T03:50:58.523Z,100.00
2022-11-02T03:53:34.939Z,100.00
2022-11-02T03:56:08.255Z,100.00
2022-11-02T03:58:35.962Z,100.00
2022-11-02T04:01:05.106Z,100.00
2022-11-02T04:03:33.385Z,100.00
2022-11-02T04:06:00.659Z,100.00
2022-11-02T04:08:30.959Z,100.00
2022-11-02T04:11:16.686Z,100.00
2022-11-02T04:14:02.062Z,100.00
2022-11-02T04:16:29.304Z,100.00
2022-11-02T04:19:14.733Z,100.00
2022-11-02T04:22:01.864Z,100.00
2022-11-02T04:24:47.152Z,100.00
2022-11-02T04:27:18.110Z,100.00
2022-11-02T04:29:47.559Z,100.00
2022-11-02T04:32:14.676Z,100.00
2022-11-02T04:34:41.483Z,100.00
2022-11-02T04:37:28.591Z,100.00
2022-11-02T04:39:55.487Z,100.00
2022-11-02T04:42:22.786Z,100.00
2022-11-02T04:44:49.935Z,100.00
2022-11-02T04:47:17.087Z,100.00
2022-11-02T04:49:45.299Z,100.00
2022-11-02T04:52:12.491Z,100.00
2022-11-02T04:54:39.562Z,100.00
2022-11-02T04:57:06.713Z,100.00
2022-11-02T04:59:33.954Z,100.00
2022-11-02T05:02:01.189Z,100.00
2022-11-02T05:04:28.140Z,100.00
2022-11-02T05:07:00.264Z,100.00
2022-11-02T05:09:28.264Z,100.00
2022-11-02T05:11:55.439Z,100.00
2022-11-02T05:14:22.327Z,100.00
2022-11-02T05:16:49.486Z,100.00
2022-11-02T05:19:16.438Z,100.00
2022-11-02T05:21:44.247Z,100.00
2022-11-02T05:24:11.194Z,100.00
2022-11-02T05:26:38.378Z,100.00
2022-11-02T05:29:05.464Z,100.00
2022-11-02T05:31:32.636Z,100.00
2022-11-02T05:33:59.635Z,100.00
2022-11-02T05:36:26.747Z,100.00
2022-11-02T05:38:54.452Z,100.00
2022-11-02T05:41:23.193Z,100.00
2022-11-02T05:43:50.019Z,100.00
2022-11-02T05:46:17.320Z,100.00
2022-11-02T05:48:44.185Z,100.00
2022-11-02T05:51:11.480Z,100.00
2022-11-02T05:53:38.708Z,100.00
2022-11-02T05:56:07.639Z,100.00
2022-11-02T05:58:34.676Z,100.00
2022-11-02T06:01:02.720Z,100.00
2022-11-02T06:03:29.964Z,100.00
2022-11-02T06:06:05.564Z,100.00
2022-11-02T06:08:34.149Z,100.00
2022-11-02T06:11:08.552Z,100.00
2022-11-02T06:13:35.546Z,100.00
2022-11-02T06:16:03.493Z,100.00
2022-11-02T06:18:31.774Z,100.00
2022-11-02T06:20:59.465Z,100.00
2022-11-02T06:23:27.072Z,100.00
2022-11-02T06:25:55.191Z,100.00
2022-11-02T06:28:22.495Z,100.00
2022-11-02T06:30:50.012Z,100.00
2022-11-02T06:33:17.662Z,100.00
2022-11-02T06:35:46.244Z,100.00
2022-11-02T06:38:13.202Z,100.00
2022-11-02T06:40:40.504Z,100.00
2022-11-02T06:43:23.260Z,100.00
2022-11-02T06:45:50.823Z,100.00
2022-11-02T06:48:17.821Z,100.00
2022-11-02T06:50:45.114Z,100.00
2022-11-02T06:53:12.072Z,100.00
2022-11-02T06:55:39.480Z,100.00
2022-11-02T06:58:06.622Z,100.00
2022-11-02T07:00:34.096Z,99.43
2022-11-02T07:03:01.179Z,99.38
2022-11-02T07:05:28.800Z,99.77
2022-11-02T07:07:55.691Z,99.24
2022-11-02T07:10:23.295Z,98.70
2022-11-02T07:12:54.399Z,98.40
2022-11-02T07:15:23.166Z,97.83
2022-11-02T07:17:50.367Z,97.37
2022-11-02T07:20:17.784Z,97.48
2022-11-02T07:22:54.348Z,97.36
2022-11-02T07:25:21.881Z,97.24
2022-11-02T07:27:48.799Z,96.61
2022-11-02T07:30:16.429Z,96.29
2022-11-02T07:32:44.168Z,95.95
2022-11-02T07:35:13.312Z,96.47
2022-11-02T07:37:40.764Z,95.98
2022-11-02T07:40:09.543Z,95.78
2022-11-02T07:42:36.614Z,95.36
2022-11-02T07:45:04.991Z,95.39
2022-11-02T07:47:33.776Z,94.95
2022-11-02T07:50:02.236Z,94.11
2022-11-02T07:52:29.174Z,93.68
2022-11-02T07:54:56.317Z,93.87
2022-11-02T07:57:23.230Z,93.24
2022-11-02T07:59:50.455Z,92.89
2022-11-02T08:02:17.442Z,92.77
2022-11-02T08:04:45.223Z,92.28
2022-11-02T08:07:12.687Z,92.53
2022-11-02T08:09:40.129Z,92.55
2022-11-02T08:12:11.185Z,91.71
2022-11-02T08:14:38.427Z,91.68
2022-11-02T08:17:05.268Z,90.52
2022-11-02T08:19:32.564Z,88.83
2022-11-02T08:21:59.422Z,88.44
2022-11-02T08:24:26.569Z,86.68
2022-11-02T08:26:54.960Z,85.44
2022-11-02T08:29:22.471Z,85.76
2022-11-02T08:31:49.575Z,84.92
2022-11-02T08:34:16.816Z,83.69
2022-11-02T08:36:43.819Z,84.09
2022-11-02T08:39:16.045Z,84.30
2022-11-02T08:41:45.414Z,82.37
2022-11-02T08:44:12.655Z,82.45
2022-11-02T08:46:39.552Z,80.45
2022-11-02T08:49:06.912Z,80.31
2022-11-02T08:51:33.806Z,81.85
2022-11-02T08:54:01.168Z,81.12
2022-11-02T08:56:28.715Z,80.89
2022-11-02T08:58:56.236Z,81.89
2022-11-02T09:01:23.229Z,81.44
2022-11-02T09:03:50.594Z,81.02
2022-11-02T09:06:17.505Z,79.97
2022-11-02T09:08:44.782Z,80.08
2022-11-02T09:11:11.832Z,79.25
2022-11-02T09:13:39.192Z,79.15
2022-11-02T09:16:06.375Z,79.34
2022-11-02T09:18:33.849Z,78.45
2022-11-02T09:21:04.758Z,79.26
2022-11-02T09:23:32.237Z,79.71
2022-11-02T09:26:00.310Z,80.57
2022-11-02T09:28:27.807Z,81.00
2022-11-02T09:30:54.742Z,82.75
2022-11-02T09:33:22.139Z,83.82
2022-11-02T09:35:49.567Z,83.59
2022-11-02T09:38:18.606Z,81.58
2022-11-02T09:40:49.810Z,79.32
2022-11-02T09:43:32.880Z,79.34
2022-11-02T09:46:01.679Z,79.53
2022-11-02T09:48:32.085Z,79.98
2022-11-02T09:51:22.541Z,79.64
2022-11-02T09:53:55.930Z,80.04
2022-11-02T09:56:23.069Z,81.12
2022-11-02T09:58:59.562Z,81.06
2022-11-02T10:01:42.098Z,81.11
2022-11-02T10:04:28.039Z,82.04
2022-11-02T10:07:04.844Z,81.56
2022-11-02T10:09:52.301Z,80.66
2022-11-02T10:12:24.071Z,81.04
2022-11-02T10:14:51.287Z,81.09
2022-11-02T10:17:20.737Z,80.26
2022-11-02T10:19:52.252Z,81.33
2022-11-02T10:22:19.523Z,80.86
2022-11-02T10:24:47.987Z,78.46
2022-11-02T10:27:29.893Z,78.77
2022-11-02T10:30:14.987Z,78.20
2022-11-02T10:32:46.256Z,78.84
2022-11-02T10:35:34.001Z,77.29
2022-11-02T10:38:18.964Z,79.21
2022-11-02T10:40:58.698Z,78.79
2022-11-02T10:43:31.672Z,78.12
2022-11-02T10:46:12.794Z,79.70
2022-11-02T10:48:40.143Z,77.33
2022-11-02T10:51:12.506Z,77.23
2022-11-02T10:53:42.304Z,76.77
2022-11-02T10:56:17.398Z,76.70
2022-11-02T10:58:53.043Z,76.64
2022-11-02T11:01:20.120Z,75.53
2022-11-02T11:03:58.742Z,75.90
2022-11-02T11:06:37.291Z,75.01
2022-11-02T11:09:15.996Z,74.70
2022-11-02T11:11:52.698Z,74.58
2022-11-02T11:20:31.532Z,73.56
2022-11-02T11:23:19.546Z,73.36
2022-11-02T11:25:56.069Z,73.46
2022-11-02T11:28:33.626Z,71.69
2022-11-02T11:31:03.903Z,70.94
2022-11-02T11:33:33.085Z,71.22
2022-11-02T11:36:00.890Z,70.46
2022-11-02T11:38:27.967Z,70.18
2022-11-02T11:40:57.827Z,69.27
2022-11-02T11:43:35.248Z,68.73
2022-11-02T11:46:07.968Z,69.25
2022-11-02T11:48:47.116Z,69.01
2022-11-02T11:51:29.728Z,67.76
2022-11-02T11:54:15.878Z,67.27
2022-11-02T11:56:43.119Z,65.46
2022-11-02T11:59:26.813Z,65.55
2022-11-02T12:01:58.913Z,65.58
2022-11-02T12:04:30.053Z,64.05
2022-11-02T12:07:03.447Z,64.93
2022-11-02T12:09:35.426Z,64.12
2022-11-02T12:12:08.834Z,64.97
2022-11-02T12:14:54.508Z,63.58
2022-11-02T12:17:37.135Z,62.28
2022-11-02T12:20:17.315Z,60.91
2022-11-02T12:22:44.527Z,60.18
2022-11-02T12:25:11.403Z,60.85
2022-11-02T12:27:49.691Z,60.67
2022-11-02T12:30:35.644Z,60.33
2022-11-02T12:33:02.885Z,59.42
2022-11-02T12:35:59.832Z,59.75
2022-11-02T12:39:05.134Z,59.59
2022-11-02T12:41:32.747Z,60.08
2022-11-02T12:44:07.626Z,59.28
2022-11-02T12:46:43.370Z,59.28
2022-11-02T12:49:36.930Z,58.59
2022-11-02T12:52:04.048Z,58.24
2022-11-02T12:54:41.743Z,57.90
2022-11-02T12:57:12.586Z,57.27
2022-11-02T12:59:42.607Z,58.23
2022-11-02T13:02:09.994Z,58.03
2022-11-02T13:04:43.803Z,57.59
2022-11-02T13:07:13.820Z,58.86
2022-11-02T13:09:51.364Z,59.94
2022-11-02T13:12:20.785Z,60.82
2022-11-02T13:14:49.607Z,60.39
2022-11-02T13:17:29.064Z,61.41
2022-11-02T13:19:58.920Z,60.67
2022-11-02T13:22:28.818Z,61.50
2022-11-02T13:24:58.162Z,61.90
2022-11-02T13:27:36.355Z,61.99
2022-11-02T13:30:14.643Z,61.21
2022-11-02T13:32:43.942Z,60.95
2022-11-02T13:35:29.639Z,61.97
2022-11-02T13:38:02.115Z,61.76
2022-11-02T13:40:32.658Z,62.18
2022-11-02T13:43:18.895Z,62.59
2022-11-02T13:45:54.537Z,61.23
2022-11-02T13:48:30.946Z,61.33
2022-11-02T13:51:00.243Z,60.97
2022-11-02T13:53:35.031Z,61.02
2022-11-02T13:56:05.974Z,60.70
2022-11-02T13:58:37.617Z,61.20
2022-11-02T14:01:06.392Z,60.91
2022-11-02T14:03:46.211Z,60.78
2022-11-02T14:06:14.978Z,60.61
2022-11-02T14:08:47.418Z,60.44
2022-11-02T14:11:14.307Z,61.67
2022-11-02T14:13:53.916Z,60.74
2022-11-02T14:16:39.751Z,59.78
2022-11-02T14:19:18.880Z,58.81
2022-11-02T14:21:53.441Z,59.32
2022-11-02T14:24:33.497Z,58.74
2022-11-02T14:27:01.489Z,58.04
2022-11-02T14:29:47.107Z,58.13
2022-11-02T14:32:17.082Z,57.54
2022-11-02T14:34:51.162Z,57.24
2022-11-02T14:37:26.587Z,56.41
2022-11-02T14:39:53.799Z,56.36
2022-11-02T14:42:36.063Z,55.55
2022-11-02T14:45:09.415Z,55.04
2022-11-02T14:47:37.556Z,55.11
2022-11-02T14:50:10.847Z,55.06
2022-11-02T14:52:38.505Z,54.55
2022-11-02T14:55:18.108Z,54.03
2022-11-02T14:57:57.700Z,53.18
2022-11-02T15:00:31.289Z,53.24
2022-11-02T15:02:58.599Z,53.22
2022-11-02T15:05:31.753Z,53.04
2022-11-02T15:07:59.910Z,53.26
2022-11-02T15:10:30.271Z,53.52
2022-11-02T15:13:17.203Z,54.25
2022-11-02T15:16:04.771Z,53.83
2022-11-02T15:18:31.839Z,53.83
2022-11-02T15:21:11.060Z,54.41
2022-11-02T15:23:47.342Z,54.25
2022-11-02T15:26:27.846Z,54.11
2022-11-02T15:28:56.927Z,54.54
2022-11-02T15:31:26.272Z,55.46
2022-11-02T15:34:02.603Z,56.02
2022-11-02T15:36:37.599Z,55.79
2022-11-02T15:39:08.439Z,55.73
2022-11-02T15:41:39.379Z,56.22
2022-11-02T15:44:14.064Z,56.17
2022-11-02T15:47:07.500Z,55.82
2022-11-02T15:49:34.672Z,57.18
2022-11-02T15:52:16.941Z,56.78
2022-11-02T15:54:48.443Z,56.75
2022-11-02T15:57:34.473Z,56.54
2022-11-02T16:00:17.497Z,56.66
2022-11-02T16:02:54.227Z,56.82
2022-11-02T16:05:25.447Z,56.77
2022-11-02T16:08:20.674Z,57.39
2022-11-02T16:10:42.332Z,57.05
2022-11-02T16:13:20.480Z,56.71
2022-11-02T16:15:49.017Z,57.86
2022-11-02T16:18:23.296Z,58.05
2022-11-02T16:20:50.465Z,58.95
2022-11-02T16:23:23.384Z,59.15
2022-11-02T16:25:51.064Z,58.20
2022-11-02T16:28:18.583Z,58.59
2022-11-02T16:31:18.541Z,58.84
2022-11-02T16:33:46.738Z,59.46
2022-11-02T16:36:35.683Z,60.06
2022-11-02T16:39:12.060Z,61.91
2022-11-02T16:41:40.847Z,60.77
2022-11-02T16:44:09.761Z,61.49
2022-11-02T16:46:50.221Z,62.07
2022-11-02T16:49:18.968Z,63.27
2022-11-02T16:51:57.058Z,63.82
2022-11-02T16:54:33.403Z,63.34
2022-11-02T16:57:07.140Z,64.31
2022-11-02T16:59:50.512Z,64.01
2022-11-02T17:02:19.385Z,64.00
2022-11-02T17:04:47.782Z,65.03
2022-11-02T17:07:14.856Z,65.08
2022-11-02T17:09:42.461Z,64.27
2022-11-02T17:12:15.082Z,64.85
2022-11-02T17:14:46.586Z,65.53
2022-11-02T17:17:26.038Z,65.15
2022-11-02T17:19:56.797Z,65.73
2022-11-02T17:22:26.435Z,66.55
2022-11-02T17:25:08.664Z,66.94
2022-11-02T17:27:39.398Z,67.39
2022-11-02T17:30:29.445Z,67.14
2022-11-02T17:32:57.734Z,67.48
2022-11-02T17:35:27.528Z,67.85
2022-11-02T17:37:55.326Z,68.12
2022-11-02T17:40:22.338Z,67.73
2022-11-02T17:42:58.739Z,67.69
2022-11-02T17:45:27.531Z,68.18
2022-11-02T17:47:55.291Z,67.53
2022-11-02T17:50:22.762Z,68.49
2022-11-02T17:52:50.951Z,68.23
2022-11-02T17:55:19.259Z,67.25
2022-11-02T17:57:46.908Z,67.37
2022-11-02T18:00:14.660Z,67.70
2022-11-02T18:02:42.014Z,67.80
2022-11-02T18:05:16.170Z,68.20
2022-11-02T18:07:43.426Z,68.70
2022-11-02T18:10:10.367Z,68.07
2022-11-02T18:12:37.666Z,67.91
2022-11-02T18:15:05.124Z,68.96
2022-11-02T18:17:34.937Z,68.55
2022-11-02T18:20:02.284Z,68.01
2022-11-02T18:22:29.611Z,67.79
2022-11-02T18:24:56.770Z,68.33
2022-11-02T18:27:26.374Z,68.75
2022-11-02T18:29:56.045Z,69.01
2022-11-02T18:32:24.201Z,68.57
2022-11-02T18:34:51.523Z,68.70
2022-11-02T18:37:18.970Z,69.18
2022-11-02T18:39:46.130Z,69.09
2022-11-02T18:42:13.447Z,68.18
2022-11-02T18:44:40.470Z,68.99
2022-11-02T18:47:08.607Z,68.50
2022-11-02T18:49:35.682Z,69.28
2022-11-02T18:52:03.306Z,68.99
2022-11-02T18:54:30.290Z,69.33
2022-11-02T18:56:57.598Z,69.76
2022-11-02T18:59:24.483Z,70.10
2022-11-02T19:01:52.749Z,70.00
2022-11-02T19:04:19.833Z,69.30
2022-11-02T19:07:05.587Z,70.12
2022-11-02T19:09:33.595Z,69.47
2022-11-02T19:12:03.964Z,69.70
2022-11-02T19:14:35.435Z,69.42
2022-11-02T19:17:03.381Z,70.17
2022-11-02T19:19:30.451Z,70.38
2022-11-02T19:21:57.904Z,69.81
2022-11-02T19:24:24.840Z,69.71
2022-11-02T19:26:52.366Z,69.84
2022-11-02T19:29:19.777Z,70.81
2022-11-02T19:31:47.383Z,70.03
2022-11-02T19:34:14.511Z,70.25
2022-11-02T19:36:41.764Z,70.23
2022-11-02T19:39:09.755Z,69.95
2022-11-02T19:41:37.831Z,69.55
2022-11-02T19:44:05.279Z,69.64
2022-11-02T19:46:33.790Z,69.53
2022-11-02T19:49:00.833Z,70.12
2022-11-02T19:51:29.459Z,69.47
2022-11-02T19:53:58.544Z,70.39
2022-11-02T19:56:27.732Z,70.82
2022-11-02T19:58:55.160Z,70.06
2022-11-02T20:01:27.463Z,70.61
2022-11-02T20:03:55.448Z,70.92
2022-11-02T20:06:33.525Z,71.19
2022-11-02T20:09:02.072Z,71.50
2022-11-02T20:11:30.027Z,71.22
2022-11-02T20:13:58.440Z,72.02
2022-11-02T20:16:26.228Z,70.90
2022-11-02T20:18:53.571Z,72.04
2022-11-02T20:21:26.841Z,72.44
2022-11-02T20:23:57.833Z,71.87
2022-11-02T20:26:29.250Z,71.96
2022-11-02T20:28:56.422Z,71.60
2022-11-02T20:31:27.886Z,71.48
2022-11-02T20:33:55.108Z,71.68
2022-11-02T20:36:22.691Z,71.85
2022-11-02T20:38:51.278Z,71.65
2022-11-02T20:41:19.750Z,71.35
2022-11-02T20:43:47.833Z,71.71
2022-11-02T20:46:36.671Z,72.61
2022-11-02T20:49:14.443Z,72.43
2022-11-02T20:51:51.219Z,72.38
2022-11-02T20:54:20.005Z,72.98
2022-11-02T20:56:48.261Z,73.64
2022-11-02T20:59:15.779Z,73.37
2022-11-02T21:01:43.244Z,72.76
2022-11-02T21:04:13.899Z,73.48
2022-11-02T21:06:45.883Z,73.46
2022-11-02T21:09:12.861Z,73.09
2022-11-02T21:11:58.972Z,73.31
2022-11-02T21:14:25.983Z,73.17
2022-11-02T21:16:53.218Z,73.78
2022-11-02T21:19:20.151Z,73.45
2022-11-02T21:21:47.330Z,74.33
2022-11-02T21:24:14.730Z,74.45
2022-11-02T21:26:42.377Z,74.83
2022-11-02T21:29:09.809Z,75.92
2022-11-02T21:31:40.626Z,76.54
2022-11-02T21:34:07.560Z,76.36
2022-11-02T21:36:34.730Z,78.19
2022-11-02T21:39:01.706Z,78.02
2022-11-02T21:41:29.882Z,78.44
2022-11-02T21:43:57.292Z,79.05
2022-11-02T21:46:26.182Z,79.15
2022-11-02T21:48:55.263Z,78.89
2022-11-02T21:51:24.127Z,79.97
2022-11-02T21:53:52.339Z,79.95
2022-11-02T21:56:25.834Z,80.58
2022-11-02T21:58:53.716Z,80.34
2022-11-02T22:01:41.158Z,80.83
2022-11-02T22:04:09.054Z,81.49
2022-11-02T22:06:37.977Z,81.26
2022-11-02T22:09:06.023Z,81.77
2022-11-02T22:11:33.291Z,82.07
2022-11-02T22:14:00.806Z,82.14
2022-11-02T22:16:28.297Z,82.01
2022-11-02T22:18:56.511Z,82.21
2022-11-02T22:21:24.267Z,82.66
2022-11-02T22:23:52.035Z,82.08
2022-11-02T22:26:20.732Z,83.27
2022-11-02T22:28:47.830Z,82.36
2022-11-02T22:31:16.712Z,82.54
2022-11-02T22:33:44.984Z,82.83
2022-11-02T22:36:16.079Z,83.30
2022-11-02T22:38:51.671Z,82.86
2022-11-02T22:41:20.983Z,83.45
2022-11-02T22:43:48.664Z,83.51
2022-11-02T22:46:16.263Z,83.67
2022-11-02T22:48:43.425Z,83.78
2022-11-02T22:51:10.728Z,84.73
2022-11-02T22:53:37.922Z,84.71
2022-11-02T22:56:12.091Z,84.29
2022-11-02T22:58:40.067Z,84.12
2022-11-02T23:01:08.447Z,84.11
2022-11-02T23:03:36.184Z,84.32
2022-11-02T23:06:06.603Z,83.96
2022-11-02T23:08:37.455Z,83.88
2022-11-02T23:11:23.453Z,84.27
2022-11-02T23:13:59.517Z,84.92
2022-11-02T23:16:27.856Z,84.42
2022-11-02T23:19:17.835Z,84.66
2022-11-02T23:21:49.396Z,84.25
2022-11-02T23:24:35.939Z,83.91
2022-11-02T23:27:03.562Z,83.26
2022-11-02T23:29:49.240Z,83.03
2022-11-02T23:32:27.085Z,83.84
2022-11-02T23:35:17.996Z,84.41
2022-11-02T23:37:46.036Z,84.95
2022-11-02T23:40:14.795Z,84.62
2022-11-02T23:42:42.622Z,84.93
2022-11-02T23:45:10.331Z,84.75
2022-11-02T23:47:56.600Z,86.21
2022-11-02T23:50:42.919Z,86.08
2022-11-02T23:53:30.204Z,86.56
2022-11-02T23:56:16.028Z,86.39
2022-11-02T23:58:43.579Z,86.69
